Data for 04/03/2008

Time Sea-Level Adjusted Pressure Absolute Pressure Temperature Relative Humidity Dew Point   
(mb) (inHg) (mb) (inHg) (C) (F) (%) (C) (F)
00:05 1018 30.06 847 25.01 -2.3 27.8 90 -3.8 25.2
00:10 1018 30.06 847 25.01 -2.2 28 89 -3.7 25.3
00:15 1018 30.06 847 25.01 -2.2 28 89 -3.7 25.3
00:20 1018 30.06 847 25.01 -2.2 28 89 -3.8 25.2
00:25 1018 30.06 847 25.01 -2.1 28.2 88 -3.8 25.2
00:30 1018 30.06 847 25.01 -2.1 28.2 87 -4 24.8
00:35 1018 30.06 847 25.01 -2.1 28.3 86 -4.1 24.7
00:40 1018 30.06 847 25.01 -2.3 27.9 86 -4.3 24.3
00:45 1018 30.06 847 25.01 -2.4 27.8 86 -4.4 24.1
00:50 1018 30.06 847 25.01 -2.2 28 84 -4.5 23.9
00:55 1018 30.06 847 25.01 -2.2 28 84 -4.6 23.8
01:00 1018 30.06 847 25.01 -2.4 27.6 84 -4.8 23.4
01:05 1018 30.06 847 25.01 -2.5 27.4 84 -4.8 23.3
01:10 1018 30.06 847 25.01 -2.6 27.2 85 -4.9 23.2
01:15 1018 30.06 847 25.01 -2.5 27.5 83 -5 23.1
01:20 1018 30.06 847 25.01 -2.3 27.9 82 -5 23
01:25 1018 30.06 847 25.01 -2.2 28.1 80 -5.1 22.8
01:30 1018 30.06 847 25.01 -2.1 28.3 78 -5.4 22.3
01:35 1018 30.06 847 25.01 -1.9 28.6 77 -5.4 22.2
01:40 1018 30.06 847 25.01 -1.8 28.8 75 -5.6 21.9
01:45 1018 30.06 847 25.01 -1.8 28.8 74 -5.8 21.6
01:50 1018 30.06 847 25.01 -1.8 28.7 74 -5.9 21.5
01:55 1018 30.06 847 25.01 -1.9 28.5 74 -5.9 21.3
02:00 1018 30.06 847 25.01 -2 28.4 74 -6.1 21.1
02:05 1018 30.06 847 25.01 -2.1 28.3 74 -6.2 20.9
02:10 1018 30.06 847 25.01 -2.1 28.2 74 -6.2 20.8
02:15 1018 30.06 847 25.01 -2.3 28 74 -6.4 20.6
02:20 1018 30.06 847 25.01 -2.5 27.6 74 -6.5 20.2
02:25 1018 30.06 847 25.01 -2.6 27.4 74 -6.7 20
02:30 1018 30.06 847 25.01 -2.7 27.1 73 -6.9 19.5
02:35 1018 30.06 847 25.01 -2.8 27 72 -7.2 19.1
02:40 1018 30.06 847 25.01 -2.8 27.1 71 -7.4 18.8
02:45 1018 30.06 847 25.01 -2.7 27.2 69 -7.5 18.4
02:50 1018 30.06 847 25.01 -2.6 27.3 68 -7.7 18.2
02:55 1018 30.06 847 25.01 -2.6 27.4 68 -7.7 18.1
03:00 1018 30.06 847 25.01 -2.5 27.5 66 -7.9 17.8
03:05 1018 30.06 847 25.01 -2.5 27.6 66 -8 17.6
03:10 1018 30.06 847 25.01 -2.6 27.3 66 -8.1 17.4
03:15 1018 30.06 847 25.01 -2.7 27.2 66 -8.2 17.3
03:20 1018 30.06 847 25.01 -2.6 27.3 66 -8.2 17.2
03:25 1018 30.06 847 25.01 -2.6 27.4 65 -8.2 17.2
03:30 1018 30.06 847 25.01 -2.6 27.3 65 -8.3 17
03:35 1018 30.06 847 25.01 -2.7 27.1 65 -8.4 16.9
03:40 1018 30.06 847 25.01 -2.7 27.1 65 -8.4 16.9
03:45 1018 30.06 847 25.01 -2.8 27 65 -8.4 16.9
03:50 1018 30.06 847 25.01 -2.8 27 65 -8.5 16.8
03:55 1018 30.06 847 25.01 -2.9 26.8 66 -8.3 17
04:00 1018 30.06 847 25.01 -3.6 25.5 69 -8.5 16.8
04:05 1018 30.06 847 25.01 -4.1 24.6 71 -8.7 16.4
04:10 1018 30.06 847 25.01 -4.7 23.5 73 -8.9 16
04:15 1018 30.06 847 25.01 -4.9 23.3 74 -8.8 16.1
04:20 1018 30.06 847 25.01 -4.8 23.4 74 -8.6 16.4
04:25 1018 30.06 847 25.01 -5.1 22.9 76 -8.6 16.5
04:30 1018 30.06 847 25.01 -5.1 22.8 77 -8.6 16.6
04:35 1018 30.06 847 25.01 -5.1 22.7 78 -8.4 16.8
04:40 1018 30.06 848 25.04 -5.2 22.7 79 -8.3 17
04:45 1018 30.06 848 25.04 -5.3 22.5 79 -8.3 17.1
04:50 1018 30.06 848 25.04 -5.1 22.9 78 -8.3 17
04:55 1018 30.06 848 25.04 -5.4 22.3 78 -8.6 16.5
05:00 1018 30.06 848 25.04 -5.5 22.1 78 -8.8 16.1
05:05 1018 30.06 848 25.04 -5.2 22.6 76 -8.8 16.1
05:10 1018 30.06 848 25.04 -4.7 23.5 74 -8.6 16.6
05:15 1018 30.06 848 25.04 -4.4 24 73 -8.6 16.5
05:20 1018 30.06 848 25.04 -4.5 24 72 -8.8 16.2
05:25 1018 30.06 848 25.04 -4.7 23.5 72 -9.1 15.7
05:30 1018 30.06 848 25.04 -5.1 22.9 72 -9.3 15.2
05:35 1018 30.06 848 25.04 -5 23 71 -9.4 15.1
05:40 1018 30.06 848 25.04 -5 23 71 -9.5 14.9
05:45 1018 30.06 848 25.04 -5.4 22.3 73 -9.6 14.8
05:50 1019 30.09 848 25.04 -5.6 21.9 73 -9.7 14.5
05:55 1019 30.09 848 25.04 -5.6 21.9 73 -9.7 14.5
06:00 1019 30.09 848 25.04 -5.5 22.1 73 -9.6 14.7
06:05 1019 30.09 848 25.04 -5.3 22.5 72 -9.5 14.9
06:10 1019 30.09 848 25.04 -5.2 22.7 72 -9.5 14.9
06:15 1019 30.09 848 25.04 -5 22.9 70 -9.6 14.7
06:20 1019 30.09 848 25.04 -4.8 23.3 70 -9.6 14.8
06:25 1019 30.09 848 25.04 -4.8 23.3 70 -9.6 14.8
06:30 1019 30.09 848 25.04 -5 23 70 -9.7 14.6
06:35 1019 30.09 848 25.04 -5.3 22.5 71 -9.8 14.4
06:40 1019 30.09 848 25.04 -5.3 22.5 71 -9.7 14.5
06:45 1019 30.09 848 25.04 -5.1 22.8 71 -9.7 14.6
06:50 1019 30.09 848 25.04 -4.9 23.3 69 -9.7 14.5
06:55 1019 30.09 848 25.04 -5 23 69 -9.8 14.4
07:00 1019 30.09 848 25.04 -5.3 22.5 71 -9.8 14.4
07:05 1019 30.09 848 25.04 -5.2 22.6 70 -9.8 14.4
07:10 1019 30.09 848 25.04 -5.3 22.5 70 -9.9 14.1
07:15 1019 30.09 848 25.04 -5.5 22.1 71 -10 14
07:20 1019 30.09 848 25.04 -5.4 22.2 71 -9.9 14.2
07:25 1019 30.09 848 25.04 -5.4 22.3 71 -9.9 14.1
07:30 1019 30.09 848 25.04 -5.6 22 72 -9.9 14.1
07:35 1019 30.09 848 25.04 -5.7 21.8 72 -9.9 14.2
07:40 1019 30.09 848 25.04 -5.6 21.9 72 -9.9 14.1
07:45 1019 30.09 848 25.04 -5.4 22.3 72 -9.7 14.5
07:50 1019 30.09 848 25.04 -5.2 22.7 72 -9.5 14.8
07:55 1019 30.09 848 25.04 -4.9 23.2 70 -9.5 14.9
08:00 1019 30.09 848 25.04 -4.6 23.7 69 -9.4 15.1
08:05 1019 30.09 848 25.04 -4.5 23.8 68 -9.5 14.8
08:10 1019 30.09 848 25.04 -4.6 23.8 68 -9.6 14.6
08:15 1019 30.09 848 25.04 -4.4 24 67 -9.6 14.7
08:20 1019 30.09 848 25.04 -4.2 24.4 67 -9.5 14.8
08:25 1019 30.09 848 25.04 -4.1 24.7 66 -9.5 14.8
08:30 1019 30.09 849 25.07 -4.2 24.5 66 -9.6 14.8
08:35 1019 30.09 849 25.07 -4.1 24.7 65 -9.7 14.6
08:40 1019 30.09 849 25.07 -4 24.8 65 -9.5 14.8
08:45 1019 30.09 849 25.07 -3.8 25.2 65 -9.4 15.2
08:50 1019 30.09 849 25.07 -3.5 25.7 65 -9.2 15.5
08:55 1019 30.09 849 25.07 -3.2 26.3 63 -9.2 15.4
09:00 1019 30.09 849 25.07 -3.1 26.5 63 -9.1 15.6
09:05 1019 30.09 849 25.07 -3 26.6 63 -9 15.7
09:10 1020 30.12 849 25.07 -2.8 27 63 -8.9 16
09:15 1019 30.09 849 25.07 -2.5 27.4 61 -9 15.7
09:20 1019 30.09 849 25.07 -2.3 27.8 61 -8.9 16
09:25 1020 30.12 849 25.07 -1.9 28.6 60 -8.8 16.2
09:30 1020 30.12 849 25.07 -1.6 29.2 59 -8.7 16.4
09:35 1020 30.12 849 25.07 -1 30.3 56 -8.6 16.5
09:40 1020 30.12 849 25.07 -0.4 31.3 54 -8.6 16.6
09:45 1020 30.12 849 25.07 -0 32 52 -8.8 16.2
09:50 1020 30.12 849 25.07 -0.3 31.5 53 -8.7 16.4
09:55 1020 30.12 849 25.07 -0.2 31.7 53 -8.5 16.6
10:00 1020 30.12 849 25.07 0.3 32.5 52 -8.4 16.8
10:05 1020 30.12 849 25.07 0.6 33 50 -8.6 16.5
10:10 1020 30.12 849 25.07 0.9 33.5 51 -8.3 17.1
10:15 1020 30.12 849 25.07 1.4 34.5 49 -8.3 17.1
10:20 1020 30.12 849 25.07 1.3 34.4 48 -8.4 16.9
10:25 1020 30.12 849 25.07 0.1 32.2 52 -8.5 16.7
10:30 1019 30.09 849 25.07 0 32 53 -8.6 16.6
10:35 1019 30.09 849 25.07 0.2 32.4 52 -8.4 16.8
10:40 1020 30.12 849 25.07 1 33.7 51 -8 17.7
10:45 1020 30.12 849 25.07 1.7 35.1 49 -7.9 17.7
10:50 1020 30.12 849 25.07 1.2 34.2 50 -8.2 17.3
10:55 1020 30.12 849 25.07 1 33.8 50 -8.4 16.9
11:00 1020 30.12 849 25.07 1.3 34.3 48 -8.5 16.7
11:05 1020 30.12 849 25.07 1.4 34.5 48 -8.5 16.7
11:10 1020 30.12 849 25.07 2.1 35.7 44 -8.9 16
11:15 1020 30.12 849 25.07 1.6 34.9 45 -9.1 15.6
11:20 1019 30.09 849 25.07 1.8 35.2 45 -8.8 16.1
11:25 1019 30.09 849 25.07 1.5 34.7 46 -9 15.9
11:30 1019 30.09 849 25.07 1.6 34.8 44 -9.3 15.3
11:35 1019 30.09 849 25.07 2.1 35.7 43 -9.2 15.5
11:40 1019 30.09 849 25.07 2.2 35.9 44 -8.8 16.1
11:45 1019 30.09 849 25.07 2.6 36.7 42 -9 15.7
11:50 1019 30.09 849 25.07 3.3 37.9 42 -8.5 16.7
11:55 1019 30.09 849 25.07 2.7 36.8 43 -8.7 16.4
12:00 1019 30.09 849 25.07 3.3 38 42 -8.5 16.7
12:05 1019 30.09 849 25.07 3.7 38.6 41 -8.4 16.8
12:10 1019 30.09 848 25.04 4.1 39.4 40 -8.4 16.9
12:15 1019 30.09 848 25.04 3.2 37.8 41 -8.8 16.2
12:20 1019 30.09 849 25.07 3.8 38.8 40 -8.7 16.3
12:25 1019 30.09 848 25.04 4.1 39.4 39 -8.6 16.4
12:30 1019 30.09 848 25.04 4 39.2 40 -8.4 16.9
12:35 1019 30.09 848 25.04 4.2 39.5 38 -8.8 16.2
12:40 1019 30.09 848 25.04 4.6 40.3 38 -8.6 16.5
12:45 1019 30.09 848 25.04 5.1 41.2 35 -9 15.9
12:50 1019 30.09 848 25.04 5.3 41.5 35 -8.9 16
12:55 1019 30.09 848 25.04 4.2 39.5 37 -9.1 15.6
13:00 1019 30.09 848 25.04 4.5 40.2 37 -9 15.8
13:05 1019 30.09 848 25.04 5 41 34 -9.6 14.7
13:10 1019 30.09 848 25.04 5.5 41.9 34 -9 15.8
13:15 1019 30.09 848 25.04 6 42.8 33 -9 15.9
13:20 1019 30.09 848 25.04 6.2 43.2 34 -8.6 16.6
13:25 1019 30.09 848 25.04 5.9 42.6 36 -8.2 17.3
13:30 1019 30.09 848 25.04 5.9 42.6 35 -8.5 16.8
13:35 1019 30.09 848 25.04 6.2 43.2 33 -8.7 16.3
13:40 1019 30.09 848 25.04 5.4 41.7 35 -8.8 16.2
13:45 1019 30.09 848 25.04 5 41 37 -8.4 16.8
13:50 1019 30.09 848 25.04 4.9 40.8 36 -8.8 16.2
13:55 1019 30.09 848 25.04 5.5 41.8 36 -8.6 16.6
14:00 1019 30.09 848 25.04 5.6 42.1 35 -8.7 16.3
14:05 1019 30.09 848 25.04 5 41 37 -8.4 16.8
14:10 1019 30.09 848 25.04 4.6 40.2 36 -9.2 15.4
14:15 1019 30.09 848 25.04 4.8 40.6 36 -9.1 15.7
14:20 1018 30.06 848 25.04 6.3 43.3 34 -8.6 16.6
14:25 1018 30.06 848 25.04 6.6 44 34 -8.3 17.1
14:30 1018 30.06 848 25.04 7 44.5 34 -7.9 17.9
14:35 1018 30.06 848 25.04 5.9 42.7 39 -6.9 19.6
14:40 1018 30.06 848 25.04 5.5 42 39 -7.3 18.9
14:45 1018 30.06 848 25.04 5.9 42.6 37 -7.6 18.3
14:50 1018 30.06 848 25.04 5.6 42 40 -7 19.3
14:55 1018 30.06 847 25.01 5.9 42.6 36 -8.1 17.4
15:00 1018 30.06 847 25.01 5.4 41.8 39 -7.4 18.7
15:05 1018 30.06 847 25.01 4.9 40.8 42 -7.1 19.2
15:10 1018 30.06 847 25.01 5.4 41.7 38 -7.8 17.9
15:15 1018 30.06 847 25.01 5.7 42.3 40 -6.9 19.6
15:20 1018 30.06 847 25.01 6.2 43.2 37 -7.4 18.7
15:25 1018 30.06 847 25.01 6.9 44.4 34 -7.8 18
15:30 1018 30.06 847 25.01 7 44.7 34 -7.8 18
15:35 1018 30.06 847 25.01 7.8 46 32 -7.9 17.7
15:40 1018 30.06 847 25.01 7.8 46.1 34 -7.1 19.2
15:45 1018 30.06 847 25.01 7.2 45 32 -8.4 16.9
15:50 1018 30.06 847 25.01 7.4 45.3 33 -7.8 17.9
15:55 1018 30.06 847 25.01 7.4 45.2 34 -7.5 18.5
16:00 1018 30.06 847 25.01 7 44.5 33 -8.4 16.9
16:05 1018 30.06 847 25.01 6.8 44.3 34 -8.1 17.4
16:10 1018 30.06 847 25.01 8 46.4 31 -8 17.6
16:15 1018 30.06 847 25.01 7.8 46.1 32 -7.9 17.8
16:20 1018 30.06 847 25.01 6.6 43.9 33 -8.6 16.5
16:25 1018 30.06 847 25.01 6.1 43 33 -8.8 16.1
16:30 1018 30.06 847 25.01 6.3 43.3 33 -8.9 16
16:35 1018 30.06 847 25.01 6.5 43.7 33 -8.7 16.3
16:40 1018 30.06 847 25.01 6.9 44.5 31 -9.1 15.7
16:45 1018 30.06 847 25.01 7.3 45.1 31 -8.9 15.9
16:50 1018 30.06 847 25.01 7.3 45.2 30 -9.2 15.4
16:55 1018 30.06 847 25.01 7.4 45.4 29 -9.4 15.2
17:00 1018 30.06 847 25.01 7.3 45.1 30 -9.4 15.1
17:05 1018 30.06 847 25.01 7.4 45.4 29 -9.5 14.9
17:10 1018 30.06 847 25.01 7.3 45.2 30 -9 15.7
17:15 1018 30.06 847 25.01 7.6 45.6 29 -9.4 15.1
17:20 1018 30.06 847 25.01 7.7 45.8 30 -9 15.9
17:25 1018 30.06 847 25.01 7.7 45.9 30 -8.8 16.2
17:30 1017 30.03 847 25.01 7.7 45.9 29 -9.2 15.4
17:35 1017 30.03 847 25.01 7.7 45.8 29 -9.4 15
17:40 1017 30.03 847 25.01 7.7 45.9 28 -9.9 14.2
17:45 1017 30.03 847 25.01 7.8 46 28 -9.7 14.5
17:50 1017 30.03 847 25.01 8 46.4 27 -9.7 14.6
17:55 1017 30.03 847 25.01 8 46.3 28 -9.4 15.1
18:00 1017 30.03 847 25.01 7.9 46.1 30 -8.7 16.3
18:05 1017 30.03 847 25.01 7.3 45.1 31 -8.7 16.3
18:10 1017 30.03 847 25.01 7.8 46 27 -10 14.1
18:15 1017 30.03 847 25.01 8.2 46.7 27 -9.8 14.3
18:20 1017 30.03 847 25.01 7.8 46 28 -9.7 14.6
18:25 1017 30.03 847 25.01 7.4 45.4 29 -9.3 15.3
18:30 1017 30.03 847 25.01 7.1 44.7 30 -9.4 15.1
18:35 1017 30.03 847 25.01 7.2 45 30 -9.1 15.6
18:40 1017 30.03 847 25.01 7.2 44.9 30 -9.5 14.9
18:45 1017 30.03 846 24.98 7.1 44.7 30 -9.2 15.5
18:50 1017 30.03 847 25.01 7.1 44.7 30 -9.3 15.2
18:55 1017 30.03 847 25.01 7 44.7 30 -9.3 15.3
19:00 1017 30.03 847 25.01 6.8 44.3 32 -8.8 16.1
19:05 1017 30.03 846 24.98 6.7 44.1 34 -7.9 17.7
19:10 1017 30.03 846 24.98 6.5 43.8 36 -7.4 18.7
19:15 1017 30.03 846 24.98 6.5 43.7 38 -6.8 19.8
19:20 1017 30.03 846 24.98 6.3 43.4 37 -7.4 18.7
19:25 1017 30.03 846 24.98 6.1 43.1 34 -8.5 16.8
19:30 1017 30.03 846 24.98 6.2 43.1 34 -8.7 16.3
19:35 1017 30.03 846 24.98 6.2 43.2 33 -8.8 16.1
19:40 1017 30.03 846 24.98 6.2 43.1 33 -8.8 16.2
19:45 1017 30.03 846 24.98 6 42.8 33 -9 15.7
19:50 1017 30.03 846 24.98 6 42.7 34 -8.9 15.9
19:55 1017 30.03 846 24.98 6 42.8 33 -8.9 15.9
20:00 1017 30.03 846 24.98 5.8 42.5 35 -8.6 16.5
20:05 1017 30.03 846 24.98 5.2 41.4 39 -7.6 18.3
20:10 1017 30.03 846 24.98 4.7 40.4 41 -7.5 18.6
20:15 1017 30.03 846 24.98 4.5 40.2 40 -7.8 18
20:20 1017 30.03 846 24.98 4.5 40.2 37 -8.8 16.1
20:25 1017 30.03 846 24.98 4.6 40.3 36 -9.4 15.1
20:30 1017 30.03 846 24.98 4.6 40.2 37 -8.8 16.2
20:35 1017 30.03 846 24.98 4.3 39.7 39 -8.5 16.8
20:40 1017 30.03 846 24.98 3.9 38.9 41 -8.3 17.1
20:45 1017 30.03 847 25.01 3.5 38.3 42 -8.2 17.3
20:50 1017 30.03 847 25.01 3.4 38.1 42 -8.4 16.8
20:55 1017 30.03 847 25.01 3.5 38.2 40 -8.9 15.9
21:00 1017 30.03 847 25.01 3.8 38.8 39 -8.9 16
21:05 1017 30.03 847 25.01 3.6 38.5 40 -8.8 16.1
21:10 1017 30.03 847 25.01 3.6 38.5 38 -9.5 15
21:15 1017 30.03 847 25.01 3.7 38.7 37 -9.5 14.9
21:20 1018 30.06 847 25.01 3.8 38.9 37 -9.7 14.5
21:25 1018 30.06 847 25.01 3.9 39 36 -9.9 14.1
21:30 1018 30.06 847 25.01 3.9 39 37 -9.6 14.8
21:35 1018 30.06 847 25.01 3.8 38.8 37 -9.6 14.7
21:40 1018 30.06 847 25.01 3.7 38.6 38 -9.3 15.2
21:45 1018 30.06 847 25.01 3.4 38 39 -9.4 15
21:50 1018 30.06 847 25.01 3.4 38.1 38 -9.7 14.5
21:55 1018 30.06 847 25.01 3.4 38.1 39 -9.2 15.4
22:00 1018 30.06 847 25.01 3.3 37.9 39 -9.4 15.1
22:05 1018 30.06 847 25.01 3.3 37.9 40 -9.1 15.6
22:10 1018 30.06 847 25.01 3.4 38.1 41 -8.8 16.2
22:15 1018 30.06 847 25.01 3.2 37.7 42 -8.4 16.8
22:20 1018 30.06 847 25.01 3 37.4 43 -8.5 16.7
22:25 1018 30.06 847 25.01 3 37.4 43 -8.4 16.9
22:30 1018 30.06 847 25.01 3 37.5 43 -8.3 17
22:35 1018 30.06 847 25.01 3.1 37.6 43 -8.3 17
22:40 1018 30.06 847 25.01 3.1 37.6 43 -8.2 17.2
22:45 1018 30.06 847 25.01 3 37.4 44 -8.1 17.5
22:50 1018 30.06 847 25.01 2.9 37.2 45 -8 17.6
22:55 1018 30.06 847 25.01 2.8 37.1 45 -8 17.6
23:00 1018 30.06 847 25.01 2.8 37.1 45 -8 17.6
23:05 1018 30.06 847 25.01 2.7 36.9 44 -8.3 17.1
23:10 1018 30.06 847 25.01 2.9 37.1 42 -8.7 16.3
23:15 1018 30.06 847 25.01 3 37.4 41 -9 15.9
23:20 1018 30.06 847 25.01 3.1 37.6 40 -9.2 15.4
23:25 1018 30.06 847 25.01 3.2 37.7 40 -9.2 15.5
23:30 1018 30.06 847 25.01 3.1 37.6 41 -9 15.9
23:35 1018 30.06 847 25.01 3 37.3 42 -8.8 16.1
23:40 1018 30.06 847 25.01 2.9 37.2 42 -8.7 16.3
23:45 1018 30.06 847 25.01 2.7 36.9 43 -8.5 16.7
23:50 1018 30.06 847 25.01 2.7 36.8 43 -8.8 16.2
23:55 1018 30.06 847 25.01 2.8 37 42 -9.1 15.7
24:00 1018 30.06 847 25.01 3 37.5 40 -9.3 15.2